首页
METAR-TAF:

METAR-TAF

机场 :

普拉, 克罗地亚

纬度: 44-54N, 经度: 013-55E, 海拔: 63米

当前天气观测

该预报发布于30分钟前的01:00 UTC
风速4节,风向东转东北
温度 11°C
湿度 87%
气压 1019 hPa
能见度10公里或以上
1500米以下无云,无积雨云

METAR: LDPL 170100Z 07004KT CAVOK 11/09 Q1019

时间: 03:30 (01:30 UTC)

预报

该预报发布于2小时和5分钟前的23:25 UTC
预报有效从17日的 00点(UTC)到 18日的 00点(UTC)
风速2节,风向多变
能见度10公里或以上
1500米以下无云,无积雨云
短暂存在
从 17日的 12点(UTC)到 17日的 16点(UTC)
风速8节,风向西

TAF: LDPL 162325Z 1700/1800 VRB02KT CAVOK TX21/1711Z TN10/1705Z TEMPO 1712/1716 27008KT

超过4000个机场的气象观测和天气预报(METAR&TAF报告)。

可查询的气象台以黄色和红色小点在地图上表示。

将鼠标移到小点上方,可查看气象台名称。

然后点击查看天气观测和预报。

如需切换地图:点击带黑十字的绿色按钮放大地图;点击带横线的绿色按钮缩小地图;或者点击绿色箭头查看邻近地区的地图。


METAR-TAF: